Time;durP1;ratioP1;P1;durP2;ratioP2;P2;SDS_P1;SDS_P2;PMS_P1;PMS_P2;Temp;Humidity;BMP_temperature;BMP_pressure;BME280_temperature;BME280_humidity;BME280_pressure;Samples;Min_cycle;Max_cycle;Signal;HPM_P1;HPM_P2
2022/10/26 00:01:44;;;;;;;14.85;8.55;;;;;;;1.75;72.72;99525.06;4990621;28;20518;-62
2022/10/26 00:04:09;;;;;;;20.27;9.50;;;;;;;1.78;72.67;99517.66;4991084;28;20112;-62
2022/10/26 00:06:35;;;;;;;16.55;10.02;;;;;;;1.81;72.53;99513.88;4990621;28;20042;-61
2022/10/26 00:09:00;;;;;;;19.52;9.55;;;;;;;1.80;72.48;99513.09;4991002;28;20061;-60
2022/10/26 00:11:26;;;;;;;19.80;10.98;;;;;;;1.84;72.34;99507.50;4989061;28;20121;-61
2022/10/26 00:13:52;;;;;;;20.40;9.43;;;;;;;1.80;72.89;99504.44;4988969;28;20054;-62
2022/10/26 00:16:21;;;;;;;17.10;9.40;;;;;;;1.80;72.79;99499.22;4990583;28;20039;-61
2022/10/26 00:18:47;;;;;;;18.45;9.73;;;;;;;1.78;72.39;99501.97;4990578;28;20069;-62
2022/10/26 00:21:12;;;;;;;20.20;10.23;;;;;;;1.78;72.89;99496.75;4990884;28;20113;-60
2022/10/26 00:23:38;;;;;;;15.68;8.38;;;;;;;1.83;72.38;99498.03;4993862;28;20153;-60
2022/10/26 00:26:04;;;;;;;18.90;9.30;;;;;;;1.85;72.46;99499.47;4992497;28;20038;-62
2022/10/26 00:28:30;;;;;;;19.10;9.55;;;;;;;1.84;72.19;99508.31;4993726;28;20061;-60
2022/10/26 00:31:02;;;;;;;15.15;9.48;;;;;;;1.88;72.25;99516.59;4993554;28;20058;-61
2022/10/26 00:33:29;;;;;;;14.13;8.15;;;;;;;1.91;71.99;99517.06;4992450;28;20050;-61
2022/10/26 00:35:55;;;;;;;18.63;8.82;;;;;;;1.97;71.63;99516.38;4993359;28;20038;-62
2022/10/26 00:38:21;;;;;;;24.20;8.52;;;;;;;1.99;71.48;99509.13;4993622;28;20074;-61
2022/10/26 00:40:47;;;;;;;18.48;8.38;;;;;;;2.01;71.15;99506.34;4975804;28;20042;-60
2022/10/26 00:43:38;;;;;;;15.80;7.95;;;;;;;2.05;71.02;99513.66;4993432;28;20042;-61
2022/10/26 00:46:06;;;;;;;18.20;7.85;;;;;;;2.07;70.86;99507.44;4992225;28;20034;-61
2022/10/26 00:48:38;;;;;;;14.77;8.30;;;;;;;2.10;70.37;99507.09;4994013;28;20070;-61
2022/10/26 00:51:07;;;;;;;17.15;8.63;;;;;;;2.10;70.73;99509.69;4993464;28;20045;-60
2022/10/26 00:53:33;;;;;;;14.52;8.05;;;;;;;2.11;70.60;99509.50;4992352;28;20058;-61
2022/10/26 00:56:00;;;;;;;12.43;8.07;;;;;;;2.14;70.56;99511.75;4993374;28;20507;-61
2022/10/26 00:58:25;;;;;;;15.10;7.80;;;;;;;2.10;70.58;99501.84;4952444;28;1167004;-61
2022/10/26 01:00:51;;;;;;;11.15;7.38;;;;;;;2.08;70.59;99496.78;4976982;28;20389;-62
2022/10/26 01:03:17;;;;;;;17.67;8.20;;;;;;;2.13;70.11;99504.09;4994846;28;20034;-61
2022/10/26 01:05:45;;;;;;;16.67;9.25;;;;;;;2.09;70.39;99502.81;4977049;28;20085;-61
2022/10/26 01:08:11;;;;;;;16.17;8.60;;;;;;;2.08;70.45;99501.22;4992961;28;20523;-60
2022/10/26 01:10:38;;;;;;;14.15;8.25;;;;;;;2.07;70.58;99497.78;4993152;28;20050;-61
2022/10/26 01:13:04;;;;;;;15.27;7.82;;;;;;;2.10;70.31;99507.88;4993139;28;20129;-60
2022/10/26 01:15:37;;;;;;;14.50;7.95;;;;;;;2.05;70.22;99500.56;4994307;28;20177;-61
2022/10/26 01:18:11;;;;;;;12.07;7.15;;;;;;;2.00;70.60;99495.09;4991762;28;20088;-61
2022/10/26 01:20:52;;;;;;;15.63;7.95;;;;;;;1.96;70.65;99496.41;5012850;28;20351;-61
2022/10/26 01:23:23;;;;;;;15.45;7.82;;;;;;;1.98;70.54;99504.09;5014061;28;20033;-60
2022/10/26 01:26:17;;;;;;;13.02;7.47;;;;;;;1.97;70.70;99505.91;5013730;28;20503;-61
2022/10/26 01:29:19;;;;;;;18.00;7.10;;;;;;;1.94;70.82;99495.81;5014023;28;20475;-62
2022/10/26 01:31:57;;;;;;;12.18;7.40;;;;;;;1.94;70.96;99502.81;4995673;28;20136;-59
2022/10/26 01:34:28;;;;;;;15.88;7.75;;;;;;;1.93;70.72;99506.44;5012445;28;20041;-61
2022/10/26 01:36:56;;;;;;;20.35;7.65;;;;;;;1.90;71.00;99497.13;5013434;28;20052;-60
2022/10/26 01:39:38;;;;;;;14.88;7.97;;;;;;;1.87;70.97;99500.09;5012127;28;20041;-62
2022/10/26 01:42:04;;;;;;;15.57;7.60;;;;;;;1.80;71.43;99494.78;5013535;28;20053;-61
2022/10/26 01:44:42;;;;;;;12.00;7.25;;;;;;;1.69;71.97;99489.19;5012207;28;20471;-62
2022/10/26 01:47:11;;;;;;;14.93;7.78;;;;;;;1.67;71.64;99501.59;5012207;28;20173;-61
2022/10/26 01:49:40;;;;;;;18.65;8.85;;;;;;;1.59;72.24;99505.91;5011970;28;20049;-61
2022/10/26 01:52:08;;;;;;;15.07;7.72;;;;;;;1.51;72.29;99511.19;4995615;28;20046;-61
2022/10/26 01:54:35;;;;;;;13.57;7.18;;;;;;;1.42;73.14;99507.03;5012220;28;20452;-61
2022/10/26 01:57:04;;;;;;;16.23;7.35;;;;;;;1.34;73.22;99509.69;5012001;28;20412;-62
2022/10/26 02:00:04;;;;;;;14.10;8.07;;;;;;;1.27;73.48;99504.38;4995466;28;20146;-62
2022/10/26 02:02:53;;;;;;;13.98;7.93;;;;;;;1.22;73.57;99496.25;5013164;28;20051;-61
2022/10/26 02:05:29;;;;;;;13.98;7.93;;;;;;;1.17;73.95;99493.31;5012941;28;20049;-61
2022/10/26 02:07:55;;;;;;;15.82;8.55;;;;;;;1.15;73.90;99487.50;5013032;28;20084;-61
2022/10/26 02:10:27;;;;;;;13.35;7.88;;;;;;;1.16;73.75;99493.53;5013154;28;20137;-61
2022/10/26 02:13:05;;;;;;;18.17;7.32;;;;;;;1.13;73.78;99490.25;5011896;28;20036;-61
2022/10/26 02:16:14;;;;;;;14.65;8.18;;;;;;;1.13;74.23;99489.44;4998582;28;21072;-61
2022/10/26 02:18:49;;;;;;;13.32;7.60;;;;;;;1.14;73.84;99497.09;4995508;28;20053;-60
2022/10/26 02:21:21;;;;;;;11.35;7.72;;;;;;;1.23;73.94;99500.47;5012718;28;20104;-60
2022/10/26 02:23:48;;;;;;;16.33;7.72;;;;;;;1.29;73.57;99501.56;5011658;28;20045;-61
2022/10/26 02:26:17;;;;;;;10.85;7.07;;;;;;;1.34;73.56;99500.06;5011395;28;20085;-61
2022/10/26 02:28:46;;;;;;;16.48;7.82;;;;;;;1.38;73.35;99497.91;5011448;28;20034;-61
2022/10/26 02:31:12;;;;;;;16.98;7.90;;;;;;;1.40;73.02;99498.56;5011210;28;20137;-62
2022/10/26 02:33:42;;;;;;;18.98;7.88;;;;;;;1.45;73.22;99505.88;5011395;28;20129;-60
2022/10/26 02:36:11;;;;;;;15.35;8.05;;;;;;;1.49;72.71;99496.69;4995153;28;20072;-61
2022/10/26 02:38:38;;;;;;;12.90;7.93;;;;;;;1.52;72.80;99498.94;5011253;28;20068;-61
2022/10/26 02:41:05;;;;;;;19.17;8.40;;;;;;;1.52;72.64;99496.34;5011540;28;20499;-60
2022/10/26 02:43:36;;;;;;;14.07;7.75;;;;;;;1.52;72.76;99498.94;5010886;28;20407;-59
2022/10/26 02:46:07;;;;;;;16.98;8.27;;;;;;;1.51;72.75;99490.31;4995162;28;20050;-61
2022/10/26 02:48:33;;;;;;;19.00;8.75;;;;;;;1.61;72.37;99504.91;5011600;28;20038;-61
2022/10/26 02:51:11;;;;;;;15.82;8.70;;;;;;;1.59;72.81;99510.34;5011556;28;20038;-61
2022/10/26 02:54:03;;;;;;;14.27;8.38;;;;;;;1.63;72.27;99500.34;4995049;28;20054;-61
2022/10/26 02:56:43;;;;;;;20.50;8.75;;;;;;;1.59;72.33;99495.47;5009366;28;20120;-61
2022/10/26 02:59:11;;;;;;;16.63;8.32;;;;;;;1.68;72.39;99498.81;4995221;28;20081;-60
2022/10/26 03:01:37;;;;;;;14.77;8.45;;;;;;;1.64;72.27;99494.13;5012694;28;20053;-61
2022/10/26 03:04:02;;;;;;;18.15;8.73;;;;;;;1.64;72.34;99497.53;5012942;28;20034;-61
2022/10/26 03:06:28;;;;;;;13.30;8.45;;;;;;;1.67;72.37;99494.56;5011265;28;20525;-61
2022/10/26 03:08:53;;;;;;;17.58;8.15;;;;;;;1.65;72.15;99488.72;5011371;28;20034;-60
2022/10/26 03:11:19;;;;;;;20.02;8.93;;;;;;;1.77;71.96;99497.75;5011183;28;20049;-61
2022/10/26 03:13:45;;;;;;;14.27;8.13;;;;;;;1.76;71.87;99497.91;5012723;28;20092;-61
2022/10/26 03:16:10;;;;;;;20.38;8.75;;;;;;;1.72;71.96;99487.00;5012240;28;20062;-60
2022/10/26 03:18:36;;;;;;;15.35;7.50;;;;;;;1.65;72.00;99485.28;5011303;28;20088;-61
2022/10/26 03:21:02;;;;;;;12.95;8.20;;;;;;;1.76;71.90;99487.47;5011022;28;20061;-61
2022/10/26 03:23:27;;;;;;;15.13;8.07;;;;;;;1.78;71.97;99490.72;5012504;28;20096;-60
2022/10/26 03:25:57;;;;;;;16.52;7.50;;;;;;;1.70;71.75;99481.16;5012069;28;20052;-61
2022/10/26 03:28:23;;;;;;;18.77;8.07;;;;;;;1.75;71.74;99489.28;5010917;28;20049;-61
2022/10/26 03:30:48;;;;;;;21.38;7.82;;;;;;;1.79;71.63;99495.78;5012243;28;20111;-60
2022/10/26 03:33:14;;;;;;;14.30;7.55;;;;;;;1.77;71.38;99492.53;5012149;28;20405;-62
2022/10/26 03:35:39;;;;;;;15.55;7.90;;;;;;;1.74;71.83;99492.06;5011992;28;20054;-62
2022/10/26 03:38:05;;;;;;;13.20;8.23;;;;;;;1.79;71.12;99490.56;5012111;28;20042;-61
2022/10/26 03:40:31;;;;;;;13.02;7.47;;;;;;;1.81;71.29;99488.56;5011940;28;20065;-61
2022/10/26 03:42:56;;;;;;;15.85;8.30;;;;;;;1.80;71.60;99497.41;5010969;28;20050;-61
2022/10/26 03:45:22;;;;;;;16.13;8.35;;;;;;;1.83;71.21;99491.00;5010567;28;20068;-61
2022/10/26 03:47:48;;;;;;;14.05;8.00;;;;;;;1.88;71.19;99493.88;5011988;28;20081;-62
2022/10/26 03:50:17;;;;;;;16.50;9.50;;;;;;;1.88;71.19;99491.25;5010518;28;20503;-61
2022/10/26 03:52:43;;;;;;;13.52;8.10;;;;;;;1.94;70.97;99485.34;5010455;28;20419;-62
2022/10/26 03:55:09;;;;;;;14.40;8.95;;;;;;;1.89;71.22;99495.53;5011548;28;20049;-62
2022/10/26 03:57:42;;;;;;;14.90;8.38;;;;;;;1.94;70.84;99497.59;5011508;28;20068;-61
2022/10/26 04:00:10;;;;;;;18.90;8.25;;;;;;;1.97;70.70;99502.44;5011781;28;20046;-61
2022/10/26 04:02:41;;;;;;;16.90;8.73;;;;;;;2.01;70.57;99491.47;5010572;28;20124;-62
2022/10/26 04:05:07;;;;;;;17.02;8.75;;;;;;;2.02;70.74;99487.84;5011568;28;20054;-62
2022/10/26 04:07:33;;;;;;;21.00;9.73;;;;;;;2.01;70.58;99494.09;4997518;28;20042;-61
2022/10/26 04:09:59;;;;;;;13.85;8.10;;;;;;;2.01;70.29;99501.94;4992016;28;20140;-62
2022/10/26 04:12:24;;;;;;;13.15;7.93;;;;;;;2.04;70.24;99493.72;4992121;28;20084;-62
2022/10/26 04:14:50;;;;;;;15.48;8.27;;;;;;;2.07;70.52;99491.75;4991983;28;20053;-63
2022/10/26 04:17:16;;;;;;;15.75;8.13;;;;;;;2.08;70.20;99499.41;4991738;28;20053;-63
2022/10/26 04:19:41;;;;;;;20.02;8.30;;;;;;;2.12;69.95;99505.91;4991826;28;20035;-64
2022/10/26 04:22:07;;;;;;;15.88;8.77;;;;;;;2.16;69.72;99501.13;4991928;28;20049;-62
2022/10/26 04:24:32;;;;;;;15.00;8.07;;;;;;;2.15;70.07;99500.31;4991834;28;20141;-63
2022/10/26 04:26:58;;;;;;;11.50;7.03;;;;;;;2.19;69.67;99501.56;4990261;28;20038;-62
2022/10/26 04:29:24;;;;;;;16.38;7.65;;;;;;;2.17;69.81;99500.13;4992048;28;20035;-61
2022/10/26 04:31:49;;;;;;;17.20;8.80;;;;;;;2.22;69.78;99500.41;4990474;28;20047;-61
2022/10/26 04:34:15;;;;;;;12.40;7.88;;;;;;;2.19;69.76;99506.81;4992101;28;20514;-61
2022/10/26 04:36:42;;;;;;;13.00;8.15;;;;;;;2.25;69.23;99510.50;4991776;28;20389;-61
2022/10/26 04:39:07;;;;;;;13.00;7.65;;;;;;;2.18;69.52;99502.59;4992016;28;20045;-61
2022/10/26 04:41:33;;;;;;;12.10;7.50;;;;;;;2.26;69.40;99509.50;4991598;28;20089;-62
2022/10/26 04:43:59;;;;;;;14.32;8.70;;;;;;;2.27;69.52;99513.78;4991854;28;20039;-61
2022/10/26 04:46:24;;;;;;;18.65;9.02;;;;;;;2.30;69.52;99516.03;4990245;28;20515;-61
2022/10/26 04:48:50;;;;;;;16.25;8.90;;;;;;;2.33;69.42;99514.84;4991607;28;20073;-62
2022/10/26 04:51:16;;;;;;;14.30;8.90;;;;;;;2.29;69.45;99511.75;4991505;28;20558;-61
2022/10/26 04:53:41;;;;;;;16.88;8.02;;;;;;;2.35;69.11;99510.22;4991665;28;20042;-62
2022/10/26 04:56:08;;;;;;;13.73;8.05;;;;;;;2.40;69.04;99511.31;4991754;28;20042;-61
2022/10/26 04:58:33;;;;;;;16.95;8.88;;;;;;;2.48;69.07;99515.66;4991347;28;20511;-62
2022/10/26 05:01:01;;;;;;;18.98;8.95;;;;;;;2.46;68.86;99505.34;4991668;28;20049;-64
2022/10/26 05:03:27;;;;;;;18.38;9.63;;;;;;;2.51;68.43;99504.81;4990297;28;20042;-64
2022/10/26 05:05:53;;;;;;;19.15;9.88;;;;;;;2.47;68.90;99508.78;4991247;28;20050;-65
2022/10/26 05:08:19;;;;;;;18.48;9.88;;;;;;;2.58;68.53;99507.50;4995164;28;20044;-65
2022/10/26 05:10:49;;;;;;;15.30;8.93;;;;;;;2.59;68.33;99507.34;4995186;28;20462;-65
2022/10/26 05:13:14;;;;;;;16.45;9.38;;;;;;;2.64;68.31;99506.78;4993564;28;20038;-64
2022/10/26 05:15:40;;;;;;;14.60;8.43;;;;;;;2.61;68.37;99509.75;4993548;28;20053;-66
2022/10/26 05:18:07;;;;;;;14.63;9.13;;;;;;;2.40;68.62;99477.31;4977442;28;20042;-63
2022/10/26 05:20:34;;;;;;;22.27;9.75;;;;;;;2.61;68.45;99501.91;4993882;28;20129;-65
2022/10/26 05:23:02;;;;;;;20.80;10.35;;;;;;;2.63;68.33;99500.75;4994973;28;20046;-63
2022/10/26 05:25:30;;;;;;;18.83;9.80;;;;;;;2.68;68.02;99503.63;4994626;28;20066;-62
2022/10/26 05:27:58;;;;;;;19.95;9.85;;;;;;;2.71;68.08;99498.03;4993141;28;20487;-61
2022/10/26 05:30:23;;;;;;;13.80;8.43;;;;;;;2.74;67.93;99504.72;4977130;28;20054;-61
2022/10/26 05:32:56;;;;;;;21.50;9.40;;;;;;;2.78;67.71;99505.94;4994845;28;20404;-63
2022/10/26 05:35:22;;;;;;;15.35;8.98;;;;;;;2.81;67.65;99505.59;4994527;28;20088;-60
2022/10/26 05:37:48;;;;;;;10.90;7.93;;;;;;;2.84;67.47;99507.03;4994479;28;20121;-63
2022/10/26 05:40:15;;;;;;;12.98;8.82;;;;;;;2.86;67.42;99512.91;4994473;28;20133;-63
2022/10/26 05:42:41;;;;;;;22.40;9.45;;;;;;;2.87;67.59;99510.06;4993525;28;20046;-63
2022/10/26 05:45:07;;;;;;;17.25;9.43;;;;;;;2.89;67.10;99517.75;4993982;28;20088;-62
2022/10/26 05:47:40;;;;;;;16.80;8.38;;;;;;;2.92;67.25;99515.56;4994233;28;20563;-62
2022/10/26 05:50:06;;;;;;;15.00;9.65;;;;;;;2.98;67.25;99511.41;4976774;28;20484;-61
2022/10/26 05:52:42;;;;;;;19.88;10.63;;;;;;;3.07;67.09;99512.13;4992767;28;20089;-62
2022/10/26 05:55:09;;;;;;;12.32;8.98;;;;;;;3.11;66.87;99506.31;4994605;28;20172;-62
2022/10/26 05:57:35;;;;;;;16.58;9.05;;;;;;;3.15;66.48;99510.19;4992661;28;20038;-63
2022/10/26 06:00:02;;;;;;;17.83;8.60;;;;;;;3.22;66.60;99512.88;4993946;28;20048;-63
2022/10/26 06:03:17;;;;;;;18.15;9.13;;;;;;;3.27;66.04;99512.31;4963583;28;20307;-66
2022/10/26 06:05:52;;;;;;;19.10;8.95;;;;;;;3.31;65.85;99506.50;4984965;28;20059;-63
2022/10/26 06:08:18;;;;;;;12.88;7.85;;;;;;;3.27;65.75;99509.69;4992274;28;20100;-62
2022/10/26 06:10:46;;;;;;;14.30;7.50;;;;;;;3.28;65.63;99506.06;4992350;28;20054;-63
2022/10/26 06:13:11;;;;;;;18.08;8.82;;;;;;;3.33;65.54;99503.72;4993720;28;20088;-62
2022/10/26 06:15:48;;;;;;;17.50;8.85;;;;;;;3.39;65.52;99509.00;4993665;28;20478;-63
2022/10/26 06:19:00;;;;;;;18.02;8.18;;;;;;;3.45;65.19;99501.41;4974977;28;20039;-63
2022/10/26 06:21:44;;;;;;;20.88;8.57;;;;;;;3.47;65.06;99494.97;4987129;28;20053;-64
2022/10/26 06:24:20;;;;;;;16.75;8.88;;;;;;;3.60;64.41;99505.56;4991916;28;20542;-64
2022/10/26 06:27:15;;;;;;;19.65;8.98;;;;;;;3.71;64.58;99512.09;4991907;28;20054;-63
2022/10/26 06:29:58;;;;;;;25.88;8.80;;;;;;;3.85;63.85;99510.38;4992001;28;20136;-63
2022/10/26 06:32:24;;;;;;;19.05;8.40;;;;;;;3.90;63.01;99517.69;4975805;28;20129;-64
2022/10/26 06:34:51;;;;;;;19.77;8.57;;;;;;;3.93;62.86;99501.56;4993305;28;20182;-64
2022/10/26 06:37:17;;;;;;;10.60;7.20;;;;;;;3.98;63.38;99522.78;4991949;28;20054;-63
2022/10/26 06:39:46;;;;;;;16.63;8.82;;;;;;;4.01;62.87;99517.97;4992443;28;20073;-63
2022/10/26 06:42:12;;;;;;;14.18;8.25;;;;;;;4.08;62.51;99515.38;4991991;28;20039;-63
2022/10/26 06:44:38;;;;;;;12.70;7.35;;;;;;;4.07;62.26;99511.16;4992333;28;20061;-63
2022/10/26 06:47:23;;;;;;;15.63;7.57;;;;;;;4.02;62.39;99513.53;4992902;28;20046;-64
2022/10/26 06:50:26;;;;;;;15.88;7.32;;;;;;;4.05;62.45;99519.19;4993159;28;20050;-64
2022/10/26 06:53:19;;;;;;;13.18;7.47;;;;;;;4.04;62.58;99519.41;4993082;28;20499;-64
2022/10/26 06:55:46;;;;;;;17.15;7.57;;;;;;;4.03;61.97;99513.34;4993278;28;20061;-63
2022/10/26 06:58:18;;;;;;;15.50;8.07;;;;;;;4.09;62.32;99512.59;4991437;28;20065;-64
2022/10/26 07:00:44;;;;;;;14.43;7.65;;;;;;;4.19;61.59;99512.22;4992911;28;20046;-65
2022/10/26 07:03:10;;;;;;;15.13;8.43;;;;;;;4.23;62.19;99507.41;4991759;28;20267;-63
2022/10/26 07:05:35;;;;;;;14.88;8.18;;;;;;;4.27;61.13;99514.72;4992644;28;20519;-64
2022/10/26 07:08:01;;;;;;;19.33;8.15;;;;;;;4.29;61.09;99515.34;4992910;28;20038;-67
2022/10/26 07:10:27;;;;;;;15.85;7.85;;;;;;;4.26;61.36;99518.31;4992853;28;20042;-63
2022/10/26 07:12:52;;;;;;;15.52;7.65;;;;;;;4.22;61.74;99519.72;4992596;28;20108;-65
2022/10/26 07:15:18;;;;;;;13.65;6.80;;;;;;;4.22;61.02;99500.53;4991917;28;20142;-64
2022/10/26 07:17:45;;;;;;;15.00;7.22;;;;;;;4.39;60.60;99522.03;4990971;28;20046;-66
2022/10/26 07:20:11;;;;;;;17.02;7.93;;;;;;;4.53;60.98;99515.88;4990619;28;20093;-65
2022/10/26 07:22:37;;;;;;;15.02;7.03;;;;;;;4.66;60.18;99515.91;4991128;28;20052;-65
2022/10/26 07:25:04;;;;;;;16.08;7.93;;;;;;;4.76;60.20;99513.75;4991819;28;20084;-65
2022/10/26 07:27:29;;;;;;;17.23;7.07;;;;;;;4.86;59.35;99521.25;4990839;28;20133;-65
2022/10/26 07:29:55;;;;;;;13.20;6.93;;;;;;;4.92;59.52;99527.53;4989685;28;20038;-66
2022/10/26 07:32:20;;;;;;;16.08;7.32;;;;;;;4.98;58.57;99514.41;4991565;28;20069;-66
2022/10/26 07:34:46;;;;;;;14.35;6.35;;;;;;;5.03;58.97;99519.09;4991919;28;20137;-66
2022/10/26 07:37:12;;;;;;;13.20;6.80;;;;;;;5.07;58.18;99519.50;4991923;28;20468;-64
2022/10/26 07:39:37;;;;;;;14.85;6.82;;;;;;;5.04;58.20;99525.13;4990378;28;20462;-65
2022/10/26 07:42:03;;;;;;;15.90;8.15;;;;;;;5.04;58.02;99520.69;4992169;28;20046;-63
2022/10/26 07:44:29;;;;;;;16.75;6.63;;;;;;;5.08;58.03;99514.03;4992075;28;20069;-65
2022/10/26 07:46:54;;;;;;;13.93;6.45;;;;;;;5.20;57.73;99528.19;4990322;28;20137;-65
2022/10/26 07:49:20;;;;;;;17.90;7.65;;;;;;;5.27;57.38;99520.34;4991897;28;20034;-63
2022/10/26 07:51:45;;;;;;;11.27;6.55;;;;;;;5.27;57.11;99522.97;4990373;28;20093;-66
2022/10/26 07:54:11;;;;;;;15.60;7.82;;;;;;;5.33;57.73;99532.69;4991697;28;20045;-66
2022/10/26 07:56:36;;;;;;;17.77;7.00;;;;;;;5.40;56.68;99516.91;4990707;28;20054;-66
2022/10/26 07:59:02;;;;;;;18.80;6.63;;;;;;;5.33;56.63;99518.75;4990114;28;20129;-64
2022/10/26 08:01:28;;;;;;;13.90;6.43;;;;;;;5.34;56.51;99525.59;4992069;28;20102;-65
2022/10/26 08:03:54;;;;;;;12.95;6.13;;;;;;;5.36;56.91;99520.97;4992161;28;20062;-64
2022/10/26 08:06:20;;;;;;;10.52;6.28;;;;;;;5.45;56.47;99517.13;4990420;28;20050;-64
2022/10/26 08:08:46;;;;;;;14.07;7.13;;;;;;;5.53;56.08;99516.13;4991844;28;20047;-64
2022/10/26 08:11:12;;;;;;;19.90;6.68;;;;;;;5.68;56.17;99520.19;4991532;28;20065;-65
2022/10/26 08:13:37;;;;;;;18.40;7.85;;;;;;;5.81;55.91;99522.00;4990718;28;20046;-64
2022/10/26 08:16:05;;;;;;;16.17;7.25;;;;;;;5.87;55.60;99513.28;4990403;28;20508;-64
2022/10/26 08:18:30;;;;;;;18.27;7.45;;;;;;;6.01;55.52;99516.75;4991940;28;20038;-64
2022/10/26 08:21:02;;;;;;;19.77;6.97;;;;;;;5.96;55.28;99511.28;4990903;28;20057;-62
2022/10/26 08:23:28;;;;;;;11.40;6.93;;;;;;;6.04;55.10;99512.91;4990082;28;20189;-62
2022/10/26 08:26:00;;;;;;;10.50;6.43;;;;;;;6.11;54.75;99513.69;4991021;28;20125;-61
2022/10/26 08:28:27;;;;;;;12.68;6.70;;;;;;;6.05;54.05;99512.69;4991366;28;20035;-62
2022/10/26 08:30:53;;;;;;;14.32;6.47;;;;;;;6.23;54.42;99516.50;4989125;28;20089;-62
2022/10/26 08:33:18;;;;;;;30.15;8.60;;;;;;;6.29;53.57;99519.13;4991530;28;20077;-60
2022/10/26 08:35:44;;;;;;;17.42;7.32;;;;;;;6.37;53.77;99513.66;4990223;28;20101;-63
2022/10/26 08:38:09;;;;;;;11.10;6.93;;;;;;;6.41;53.30;99514.03;4991161;28;20567;-62
2022/10/26 08:40:40;;;;;;;11.35;6.63;;;;;;;6.66;53.08;99513.38;4989639;28;20046;-63
2022/10/26 08:43:17;;;;;;;13.15;7.10;;;;;;;6.82;52.82;99518.97;4993719;28;20053;-62
2022/10/26 08:45:51;;;;;;;16.70;6.95;;;;;;;6.92;52.30;99520.34;4994508;28;20062;-62
2022/10/26 08:48:20;;;;;;;16.65;8.38;;;;;;;6.89;52.51;99516.31;4993655;28;20136;-62
2022/10/26 08:50:56;;;;;;;18.90;7.28;;;;;;;6.87;52.01;99526.25;4993125;28;20044;-61
2022/10/26 08:53:49;;;;;;;23.23;7.82;;;;;;;6.83;51.84;99522.41;4992943;28;20116;-63
2022/10/26 08:56:34;;;;;;;11.60;6.43;;;;;;;6.83;52.22;99525.06;4992425;28;20500;-62
2022/10/26 08:59:40;;;;;;;17.55;6.68;;;;;;;6.79;52.29;99523.84;4976687;28;20141;-63
2022/10/26 09:02:14;;;;;;;12.80;7.35;;;;;;;6.72;52.91;99525.69;4973845;28;20054;-62
2022/10/26 09:04:40;;;;;;;12.18;7.32;;;;;;;6.82;52.16;99531.31;4993498;28;20038;-64
2022/10/26 09:07:18;;;;;;;19.20;7.80;;;;;;;6.79;52.31;99529.09;4992676;28;20061;-63
2022/10/26 09:10:15;;;;;;;16.33;6.80;;;;;;;6.71;52.20;99521.47;4993530;28;20117;-62
2022/10/26 09:12:43;;;;;;;17.05;7.22;;;;;;;6.72;52.17;99523.06;4994816;28;20046;-62
2022/10/26 09:15:21;;;;;;;21.10;7.15;;;;;;;6.71;52.35;99524.09;4993328;28;20144;-63
2022/10/26 09:18:36;;;;;;;14.57;7.15;;;;;;;6.79;52.37;99513.28;4994212;28;20431;-64
2022/10/26 09:21:08;;;;;;;18.27;7.35;;;;;;;6.80;52.24;99521.00;4990591;28;20208;-62
2022/10/26 09:24:00;;;;;;;19.92;7.90;;;;;;;6.62;52.33;99526.16;4992887;28;20050;-62
2022/10/26 09:26:38;;;;;;;14.30;7.60;;;;;;;6.65;52.92;99522.28;4993912;28;20078;-62
2022/10/26 09:29:06;;;;;;;19.80;8.57;;;;;;;6.67;53.18;99522.88;4992548;28;20065;-65
2022/10/26 09:31:39;;;;;;;17.40;8.30;;;;;;;6.72;53.49;99533.59;4992057;28;20057;-63
2022/10/26 09:34:06;;;;;;;14.73;7.50;;;;;;;6.71;52.77;99524.91;4990573;28;20050;-63
2022/10/26 09:36:32;;;;;;;14.27;7.47;;;;;;;6.65;52.68;99525.72;4976024;28;20042;-62
2022/10/26 09:39:18;;;;;;;17.67;7.90;;;;;;;6.70;52.76;99525.09;4993485;28;20129;-62
2022/10/26 09:41:57;;;;;;;18.35;7.97;;;;;;;6.70;52.79;99519.81;4991153;28;20050;-61
2022/10/26 09:44:37;;;;;;;16.83;8.00;;;;;;;6.66;53.07;99521.28;4960199;28;20042;-63
2022/10/26 09:47:05;;;;;;;16.60;8.25;;;;;;;6.71;53.01;99518.81;4992334;28;20046;-61
2022/10/26 09:49:47;;;;;;;17.75;7.68;;;;;;;6.62;53.11;99518.25;4992484;28;20049;-61
2022/10/26 09:52:14;;;;;;;18.55;7.85;;;;;;;6.64;53.43;99524.09;4975715;28;20045;-63
2022/10/26 09:54:40;;;;;;;16.98;8.75;;;;;;;6.42;53.18;99491.97;4975396;28;20096;-62
2022/10/26 09:57:06;;;;;;;15.98;8.13;;;;;;;6.56;53.53;99514.63;4974311;28;20057;-63
2022/10/26 09:59:35;;;;;;;12.40;6.65;;;;;;;6.71;53.50;99521.47;4968149;28;20065;-64
2022/10/26 10:02:33;;;;;;;17.25;10.05;;;;;;;6.66;53.23;99510.72;4971893;28;20519;-63
2022/10/26 10:04:59;;;;;;;16.02;7.47;;;;;;;6.66;52.64;99518.63;4972272;28;20062;-63
2022/10/26 10:07:25;;;;;;;18.85;7.70;;;;;;;6.56;53.39;99522.53;4971928;28;20042;-63
2022/10/26 10:10:14;;;;;;;14.88;7.60;;;;;;;6.51;53.67;99516.25;4956194;28;20039;-61
2022/10/26 10:12:40;;;;;;;20.20;8.43;;;;;;;6.49;53.82;99518.28;4973555;28;20125;-62
2022/10/26 10:15:17;;;;;;;17.20;7.15;;;;;;;6.53;53.71;99515.03;4970403;28;20055;-65
2022/10/26 10:17:51;;;;;;;10.75;6.70;;;;;;;6.51;53.76;99524.16;4991998;28;20038;-61
2022/10/26 10:20:22;;;;;;;15.93;7.85;;;;;;;6.53;54.06;99525.56;4974321;28;20061;-62
2022/10/26 10:22:59;;;;;;;18.10;8.02;;;;;;;6.47;54.16;99518.50;4992505;28;20038;-62
2022/10/26 10:25:35;;;;;;;15.93;7.65;;;;;;;6.49;54.10;99521.72;4991508;28;20523;-63
2022/10/26 10:28:07;;;;;;;15.40;6.75;;;;;;;6.56;54.10;99519.88;4990569;28;20053;-63
2022/10/26 10:30:33;;;;;;;15.82;6.55;;;;;;;6.60;53.79;99523.72;4991708;28;20053;-61
2022/10/26 10:33:11;;;;;;;14.25;7.40;;;;;;;6.62;53.98;99514.78;4993474;28;20049;-61
2022/10/26 10:35:39;;;;;;;17.15;9.02;;;;;;;6.69;53.84;99515.59;4991403;28;20142;-62
2022/10/26 10:38:05;;;;;;;13.05;7.07;;;;;;;6.73;53.73;99514.13;4991166;28;20100;-63
2022/10/26 10:40:31;;;;;;;21.90;7.22;;;;;;;6.70;53.59;99523.25;4990838;28;20058;-62
2022/10/26 10:43:10;;;;;;;14.52;7.82;;;;;;;6.68;53.82;99511.34;4991289;28;20050;-62
2022/10/26 10:45:36;;;;;;;13.57;7.32;;;;;;;6.66;53.96;99521.28;4991610;28;20043;-64
2022/10/26 10:48:03;;;;;;;13.02;8.05;;;;;;;6.63;53.82;99511.94;4990366;28;20129;-63
2022/10/26 10:50:30;;;;;;;15.35;6.93;;;;;;;6.58;53.58;99523.09;4990399;28;20107;-63
2022/10/26 10:53:29;;;;;;;18.05;7.25;;;;;;;6.60;54.03;99522.91;4991089;28;20050;-64
2022/10/26 10:56:18;;;;;;;15.30;7.10;;;;;;;6.55;53.93;99510.34;4991483;28;20208;-63
2022/10/26 10:59:02;;;;;;;20.08;7.47;;;;;;;6.54;53.74;99516.66;4994084;28;20462;-63
2022/10/26 11:01:33;;;;;;;14.40;7.63;;;;;;;6.48;53.94;99517.47;5011359;28;20073;-63
2022/10/26 11:04:32;;;;;;;14.32;6.93;;;;;;;6.53;53.93;99519.47;5009416;28;20141;-62
2022/10/26 11:07:00;;;;;;;14.82;7.43;;;;;;;6.55;54.46;99520.06;5009681;28;20049;-65
2022/10/26 11:09:27;;;;;;;17.83;7.05;;;;;;;6.56;54.25;99519.09;5008940;28;20084;-62
2022/10/26 11:12:20;;;;;;;12.40;6.88;;;;;;;6.60;54.03;99522.91;4992686;28;20046;-62
2022/10/26 11:14:52;;;;;;;17.20;6.65;;;;;;;6.64;54.17;99515.38;5028689;28;20144;-63
2022/10/26 11:17:24;;;;;;;13.88;7.53;;;;;;;6.47;54.37;99496.59;5027661;28;20068;-62
2022/10/26 11:20:20;;;;;;;18.20;7.25;;;;;;;6.66;53.85;99510.72;5028277;28;20057;-63
2022/10/26 11:23:01;;;;;;;14.38;6.35;;;;;;;6.68;53.78;99512.16;5006620;28;20049;-63
2022/10/26 11:25:29;;;;;;;18.25;6.80;;;;;;;6.63;53.58;99513.78;5026538;28;20053;-62
2022/10/26 11:28:12;;;;;;;10.60;6.28;;;;;;;6.54;54.23;99508.75;5011045;28;20072;-62
2022/10/26 11:30:47;;;;;;;12.13;6.93;;;;;;;6.57;53.85;99508.31;5026046;28;20065;-62
2022/10/26 11:33:23;;;;;;;14.18;6.80;;;;;;;6.65;54.22;99509.09;5005625;28;20046;-62
2022/10/26 11:36:01;;;;;;;17.23;7.18;;;;;;;6.70;53.99;99510.09;5006732;28;20099;-63
2022/10/26 11:38:45;;;;;;;12.98;6.25;;;;;;;6.66;53.82;99502.84;4992001;28;20038;-63
2022/10/26 11:41:34;;;;;;;15.15;6.85;;;;;;;6.63;53.63;99508.50;4992166;28;20058;-62
2022/10/26 11:44:33;;;;;;;13.18;6.50;;;;;;;6.58;53.81;99499.41;4990913;28;20557;-62
2022/10/26 11:47:11;;;;;;;12.98;7.80;;;;;;;6.67;54.87;99499.97;4989250;28;20161;-63
2022/10/26 11:49:51;;;;;;;12.80;6.70;;;;;;;6.66;53.82;99501.00;4988377;28;20070;-63
2022/10/26 11:52:16;;;;;;;12.73;7.03;;;;;;;6.68;54.07;99503.44;4990972;28;20134;-62
2022/10/26 11:54:51;;;;;;;11.75;6.15;;;;;;;6.62;53.54;99493.72;4989769;28;20508;-63